createdAt,value
2022-10-17T00:00:55.932Z,98749.84
2022-10-17T00:03:57.328Z,98748.09
2022-10-17T00:06:58.669Z,98741.13
2022-10-17T00:10:00.067Z,98748.09
2022-10-17T00:13:01.500Z,98742.88
2022-10-17T00:16:11.113Z,98744.63
2022-10-17T00:19:12.459Z,98750.69
2022-10-17T00:22:13.855Z,98750.72
2022-10-17T00:25:15.220Z,98753.31
2022-10-17T00:28:16.914Z,98752.44
2022-10-17T00:31:18.713Z,98746.38
2022-10-17T00:34:20.068Z,98752.47
2022-10-17T00:37:21.417Z,98755.09
2022-10-17T00:40:22.915Z,98752.50
2022-10-17T00:43:24.285Z,98755.97
2022-10-17T00:46:26.953Z,98749.00
2022-10-17T00:49:29.033Z,98755.09
2022-10-17T00:52:30.729Z,98767.31
2022-10-17T00:55:33.224Z,98764.69
2022-10-17T00:58:34.741Z,98766.44
2022-10-17T01:01:36.091Z,98771.69
2022-10-17T01:04:37.832Z,98774.31
2022-10-17T01:07:39.624Z,98767.34
2022-10-17T01:10:44.044Z,98776.03
2022-10-17T01:13:52.361Z,98770.81
2022-10-17T01:16:59.793Z,98773.44
2022-10-17T01:20:04.201Z,98776.91
2022-10-17T01:23:11.684Z,98774.31
2022-10-17T01:26:45.547Z,98772.59
2022-10-17T01:29:59.164Z,98775.19
2022-10-17T01:33:06.650Z,98781.28
2022-10-17T01:36:26.382Z,98776.91
2022-10-17T01:39:46.984Z,98772.56
2022-10-17T01:42:53.522Z,98773.44
2022-10-17T01:46:11.817Z,98769.97
2022-10-17T01:49:13.320Z,98770.81
2022-10-17T01:52:22.661Z,98768.22
2022-10-17T01:55:25.851Z,98773.44
2022-10-17T01:58:28.580Z,98764.75
2022-10-17T02:01:30.767Z,98756.03
2022-10-17T02:04:32.139Z,98758.66
2022-10-17T02:07:33.529Z,98758.66
2022-10-17T02:10:55.489Z,98764.75
2022-10-17T02:13:56.821Z,98755.16
2022-10-17T02:17:17.072Z,98755.16
2022-10-17T02:20:21.456Z,98758.66
2022-10-17T02:23:41.241Z,98761.28
2022-10-17T02:26:52.511Z,98760.41
2022-10-17T02:29:57.426Z,98749.94
2022-10-17T02:32:59.980Z,98761.25
2022-10-17T02:36:03.304Z,98761.25
2022-10-17T02:39:04.621Z,98763.00
2022-10-17T02:42:06.514Z,98765.63
2022-10-17T02:45:08.071Z,98763.00
2022-10-17T02:48:10.953Z,98763.00
2022-10-17T02:51:22.556Z,98770.84
2022-10-17T02:54:39.090Z,98772.56
2022-10-17T02:57:41.343Z,98776.03
2022-10-17T03:00:42.673Z,98773.44
2022-10-17T03:03:44.022Z,98775.19
2022-10-17T03:06:46.001Z,98779.53
2022-10-17T03:09:47.356Z,98777.81
2022-10-17T03:12:48.807Z,98772.56
2022-10-17T03:15:50.222Z,98780.38
2022-10-17T03:18:51.592Z,98761.28
2022-10-17T03:21:52.972Z,98779.53
2022-10-17T03:24:54.342Z,98769.94
2022-10-17T03:27:57.592Z,98769.97
2022-10-17T03:30:58.962Z,98766.47
2022-10-17T03:34:01.602Z,98759.53
2022-10-17T03:37:03.023Z,98757.81
2022-10-17T03:40:04.518Z,98763.00
2022-10-17T03:43:06.012Z,98773.44
2022-10-17T03:46:07.424Z,98760.41
2022-10-17T03:49:09.339Z,98772.59
2022-10-17T03:52:11.386Z,98770.84
2022-10-17T03:55:12.742Z,98763.00
2022-10-17T03:58:14.105Z,98763.03
2022-10-17T04:01:15.816Z,98772.59
2022-10-17T04:04:17.223Z,98771.69
2022-10-17T04:07:18.636Z,98777.81
2022-10-17T04:10:19.998Z,98777.78
2022-10-17T04:13:21.344Z,98777.78
2022-10-17T04:16:22.875Z,98779.53
2022-10-17T04:19:25.803Z,98776.06
2022-10-17T04:22:27.585Z,98779.50
2022-10-17T04:25:32.180Z,98788.22
2022-10-17T04:28:35.019Z,98789.94
2022-10-17T04:31:36.466Z,98788.22
2022-10-17T04:34:37.851Z,98800.38
2022-10-17T04:37:39.176Z,98802.97
2022-10-17T04:40:40.502Z,98809.97
2022-10-17T04:43:44.416Z,98814.28
2022-10-17T04:46:48.322Z,98813.44
2022-10-17T04:49:49.674Z,98804.72
2022-10-17T04:52:51.045Z,98812.56
2022-10-17T04:55:52.515Z,98805.59
2022-10-17T04:58:53.878Z,98803.84
2022-10-17T05:01:55.265Z,98804.72
2022-10-17T05:04:56.670Z,98805.59
2022-10-17T05:07:58.014Z,98811.66
2022-10-17T05:14:06.151Z,98822.94
2022-10-17T05:17:07.504Z,98826.41
2022-10-17T05:20:09.105Z,98829.91
2022-10-17T05:23:10.508Z,98829.91
2022-10-17T05:26:11.894Z,98832.50
2022-10-17T05:29:13.268Z,98824.69
2022-10-17T05:32:15.329Z,98827.31
2022-10-17T05:35:16.711Z,98831.66
2022-10-17T05:38:18.054Z,98829.03
2022-10-17T05:41:19.408Z,98837.72
2022-10-17T05:44:20.737Z,98838.59
2022-10-17T05:47:22.094Z,98836.00
2022-10-17T05:50:25.179Z,98840.31
2022-10-17T05:53:26.610Z,98841.22
2022-10-17T05:56:27.942Z,98852.53
2022-10-17T05:59:29.292Z,98849.91
2022-10-17T06:02:31.033Z,98855.16
2022-10-17T06:05:35.002Z,98852.53
2022-10-17T06:08:36.538Z,98861.25
2022-10-17T06:11:37.877Z,98851.69
2022-10-17T06:14:39.247Z,98855.16
2022-10-17T06:17:40.577Z,98866.50
2022-10-17T06:20:45.296Z,98856.06
2022-10-17T06:23:47.751Z,98870.88
2022-10-17T06:26:49.952Z,98877.84
2022-10-17T06:29:51.286Z,98875.22
2022-10-17T06:32:52.790Z,98883.97
2022-10-17T06:35:54.380Z,98884.81
2022-10-17T06:38:56.193Z,98886.56
2022-10-17T06:41:57.581Z,98883.13
2022-10-17T06:44:58.957Z,98886.59
2022-10-17T06:48:01.746Z,98880.53
2022-10-17T06:51:04.526Z,98886.59
2022-10-17T06:54:05.912Z,98900.53
2022-10-17T06:57:07.311Z,98901.41
2022-10-17T07:00:08.941Z,98891.84
2022-10-17T07:03:10.284Z,98908.38
2022-10-17T07:06:11.662Z,98908.38
2022-10-17T07:09:13.064Z,98904.91
2022-10-17T07:12:14.400Z,98899.69
2022-10-17T07:15:15.743Z,98897.00
2022-10-17T07:18:17.150Z,98897.00
2022-10-17T07:21:18.500Z,98893.47
2022-10-17T07:24:19.834Z,98897.81
2022-10-17T07:27:21.162Z,98916.09
2022-10-17T07:30:22.640Z,98912.56
2022-10-17T07:33:24.066Z,98910.81
2022-10-17T07:36:25.425Z,98913.34
2022-10-17T07:39:26.811Z,98913.28
2022-10-17T07:42:28.607Z,98917.59
2022-10-17T07:45:30.223Z,98917.53
2022-10-17T07:48:31.711Z,98920.13
2022-10-17T07:51:33.599Z,98915.69
2022-10-17T07:54:35.033Z,98923.44
2022-10-17T07:57:36.368Z,98919.03
2022-10-17T08:00:37.814Z,98918.88
2022-10-17T08:03:39.214Z,98913.47
2022-10-17T08:06:40.613Z,98924.66
2022-10-17T08:09:42.519Z,98921.84
2022-10-17T08:12:43.843Z,98924.22
2022-10-17T08:15:47.816Z,98931.88
2022-10-17T08:18:49.167Z,98929.94
2022-10-17T08:21:51.847Z,98940.09
2022-10-17T08:24:53.233Z,98954.53
2022-10-17T08:27:54.572Z,98973.22
2022-10-17T08:31:15.122Z,98997.53
2022-10-17T08:34:16.586Z,99042.44
2022-10-17T08:37:17.903Z,99107.59
2022-10-17T08:40:20.839Z,99163.94
2022-10-17T08:43:35.211Z,99203.09
2022-10-17T08:46:45.420Z,99209.03
2022-10-17T08:49:47.792Z,99213.34
2022-10-17T08:52:50.840Z,99211.84
2022-10-17T08:55:52.597Z,99224.13
2022-10-17T08:58:53.982Z,99216.81
2022-10-17T09:02:03.682Z,99229.47
2022-10-17T09:05:08.108Z,99222.84
2022-10-17T09:08:09.410Z,99229.41
2022-10-17T09:11:25.192Z,99222.09
2022-10-17T09:14:26.508Z,99226.56
2022-10-17T09:17:40.247Z,99231.88
2022-10-17T09:20:43.352Z,99245.03
2022-10-17T09:23:56.069Z,99244.00
2022-10-17T09:27:05.856Z,99246.16
2022-10-17T09:30:26.892Z,99254.25
2022-10-17T09:33:53.296Z,99254.94
2022-10-17T09:36:55.908Z,99252.41
2022-10-17T09:39:57.245Z,99264.38
2022-10-17T09:42:58.754Z,99245.56
2022-10-17T09:46:00.180Z,99253.53
2022-10-17T09:52:13.008Z,99262.66
2022-10-17T09:55:21.708Z,99260.03
2022-10-17T09:58:23.073Z,99256.22
2022-10-17T10:01:25.371Z,99259.97
2022-10-17T10:04:30.218Z,99264.44
2022-10-17T10:07:36.722Z,99268.66
2022-10-17T10:10:38.065Z,99274.84
2022-10-17T10:13:39.422Z,99269.50
2022-10-17T10:16:43.875Z,99274.75
2022-10-17T10:19:49.745Z,99278.94
2022-10-17T10:23:09.928Z,99282.66
2022-10-17T10:26:18.937Z,99266.31
2022-10-17T10:29:32.522Z,99269.56
2022-10-17T10:32:34.616Z,99276.22
2022-10-17T10:35:36.138Z,99276.25
2022-10-17T10:38:38.027Z,99267.63
2022-10-17T10:41:46.385Z,99254.88
2022-10-17T10:44:47.765Z,99263.88
2022-10-17T10:47:52.752Z,99232.28
2022-10-17T10:50:56.264Z,99239.06
2022-10-17T10:54:01.389Z,99239.66
2022-10-17T10:57:04.061Z,99234.47
2022-10-17T11:00:12.437Z,99258.56
2022-10-17T11:03:15.710Z,99246.59
2022-10-17T11:06:19.240Z,99255.78
2022-10-17T11:09:28.842Z,99239.44
2022-10-17T11:15:47.388Z,99253.78
2022-10-17T11:18:50.447Z,99246.59
2022-10-17T11:21:58.246Z,99231.19
2022-10-17T11:25:00.708Z,99244.56
2022-10-17T11:28:10.466Z,99234.50
2022-10-17T11:31:14.955Z,99261.00
2022-10-17T11:34:26.458Z,99279.41
2022-10-17T11:37:29.367Z,99272.50
2022-10-17T11:40:31.411Z,99273.47
2022-10-17T11:43:34.284Z,99279.22
2022-10-17T11:46:36.104Z,99258.09
2022-10-17T11:49:40.683Z,99269.94
2022-10-17T11:53:03.131Z,99275.91
2022-10-17T11:56:05.038Z,99277.06
2022-10-17T11:59:09.376Z,99275.41
2022-10-17T12:02:34.092Z,99264.72
2022-10-17T12:05:38.637Z,99273.28
2022-10-17T12:08:45.325Z,99287.47
2022-10-17T12:11:50.616Z,99277.91
2022-10-17T12:14:52.050Z,99290.03
2022-10-17T12:17:56.464Z,99287.91
2022-10-17T12:20:58.177Z,99268.41
2022-10-17T12:23:59.522Z,99266.59
2022-10-17T12:27:19.673Z,99275.00
2022-10-17T12:30:22.050Z,99283.34
2022-10-17T12:33:26.814Z,99265.19
2022-10-17T12:36:28.288Z,99290.34
2022-10-17T12:39:29.617Z,99286.78
2022-10-17T12:42:31.677Z,99286.09
2022-10-17T12:45:49.936Z,99286.41
2022-10-17T12:48:58.622Z,99283.84
2022-10-17T12:52:18.330Z,99284.88
2022-10-17T12:55:19.725Z,99280.25
2022-10-17T12:58:21.035Z,99287.66
2022-10-17T13:01:24.709Z,99288.44
2022-10-17T13:04:26.302Z,99285.31
2022-10-17T13:07:27.957Z,99279.22
2022-10-17T13:10:30.461Z,99291.97
2022-10-17T13:13:48.797Z,99293.63
2022-10-17T13:17:00.201Z,99288.72
2022-10-17T13:20:01.810Z,99282.66
2022-10-17T13:23:03.787Z,99273.69
2022-10-17T13:26:15.535Z,99273.38
2022-10-17T13:29:16.967Z,99271.91
2022-10-17T13:32:19.259Z,99264.28
2022-10-17T13:38:58.739Z,99249.75
2022-10-17T13:42:00.077Z,99258.09
2022-10-17T13:45:01.422Z,99261.47
2022-10-17T13:48:06.641Z,99266.97
2022-10-17T13:51:11.146Z,99256.69
2022-10-17T13:54:40.184Z,99278.19
2022-10-17T13:57:41.613Z,99271.31
2022-10-17T14:00:43.964Z,99259.53
2022-10-17T14:03:48.776Z,99256.56
2022-10-17T14:06:52.255Z,99253.94
2022-10-17T14:09:53.946Z,99269.03
2022-10-17T14:12:55.340Z,99255.13
2022-10-17T14:15:57.759Z,99250.09
2022-10-17T14:18:59.292Z,99234.72
2022-10-17T14:22:19.525Z,99242.25
2022-10-17T14:25:35.531Z,99285.03
2022-10-17T14:28:37.039Z,99280.75
2022-10-17T14:31:38.501Z,99288.50
2022-10-17T14:34:40.581Z,99289.88
2022-10-17T14:37:45.743Z,99288.69
2022-10-17T14:40:50.980Z,99283.84
2022-10-17T14:43:56.417Z,99280.72
2022-10-17T14:46:59.347Z,99276.50
2022-10-17T14:50:13.124Z,99279.34
2022-10-17T14:53:14.418Z,99283.41
2022-10-17T14:56:23.346Z,99287.31
2022-10-17T14:59:52.164Z,99284.03
2022-10-17T15:02:47.381Z,99282.63
2022-10-17T15:05:48.958Z,99284.59
2022-10-17T15:08:50.444Z,99279.38
2022-10-17T15:11:51.854Z,99294.88
2022-10-17T15:14:53.368Z,99288.78
2022-10-17T15:17:54.750Z,99289.59
2022-10-17T15:21:04.846Z,99292.56
2022-10-17T15:24:08.021Z,99292.88
2022-10-17T15:27:16.305Z,99290.91
2022-10-17T15:30:21.512Z,99288.53
2022-10-17T15:33:23.249Z,99295.19
2022-10-17T15:36:25.404Z,99283.72
2022-10-17T15:39:26.852Z,99284.34
2022-10-17T15:42:29.484Z,99286.75
2022-10-17T15:45:30.866Z,99283.19
2022-10-17T15:48:32.233Z,99284.59
2022-10-17T15:51:33.610Z,99269.34
2022-10-17T15:54:34.978Z,99284.94
2022-10-17T15:57:38.138Z,99288.00
2022-10-17T16:00:39.537Z,99276.72
2022-10-17T16:03:40.946Z,99273.41
2022-10-17T16:06:42.649Z,99286.97
2022-10-17T16:09:44.162Z,99276.78
2022-10-17T16:12:45.515Z,99275.28
2022-10-17T16:15:46.873Z,99280.94
2022-10-17T16:18:48.398Z,99281.03
2022-10-17T16:21:49.713Z,99278.41
2022-10-17T16:24:58.164Z,99283.88
2022-10-17T16:27:59.745Z,99285.03
2022-10-17T16:31:01.137Z,99275.53
2022-10-17T16:34:03.076Z,99270.56
2022-10-17T16:37:04.444Z,99269.16
2022-10-17T16:40:06.014Z,99266.66
2022-10-17T16:43:07.878Z,99267.66
2022-10-17T16:46:09.441Z,99263.50
2022-10-17T16:49:12.188Z,99278.50
2022-10-17T16:52:13.541Z,99269.88
2022-10-17T16:55:14.961Z,99268.28
2022-10-17T16:58:16.328Z,99255.31
2022-10-17T17:01:18.582Z,99265.16
2022-10-17T17:04:20.044Z,99260.91
2022-10-17T17:07:22.164Z,99260.16
2022-10-17T17:10:23.538Z,99261.19
2022-10-17T17:13:25.359Z,99257.75
2022-10-17T17:16:26.810Z,99262.28
2022-10-17T17:19:28.162Z,99250.16
2022-10-17T17:22:29.506Z,99253.69
2022-10-17T17:25:30.830Z,99248.72
2022-10-17T17:28:32.356Z,99252.31
2022-10-17T17:31:34.090Z,99248.03
2022-10-17T17:34:35.932Z,99260.56
2022-10-17T17:37:37.321Z,99250.88
2022-10-17T17:40:49.615Z,99249.09
2022-10-17T17:43:52.596Z,99255.41
2022-10-17T17:46:54.019Z,99252.88
2022-10-17T17:49:55.362Z,99247.72
2022-10-17T17:52:56.744Z,99249.53
2022-10-17T17:56:01.994Z,99261.06
2022-10-17T17:59:03.435Z,99247.91
2022-10-17T18:02:06.400Z,99254.91
2022-10-17T18:05:07.778Z,99255.81
2022-10-17T18:08:09.157Z,99256.81
2022-10-17T18:11:10.596Z,99269.16
2022-10-17T18:14:11.992Z,99265.72
2022-10-17T18:17:13.339Z,99265.72
2022-10-17T18:20:14.669Z,99260.50
2022-10-17T18:23:17.764Z,99263.19
2022-10-17T18:26:19.279Z,99261.41
2022-10-17T18:29:20.672Z,99266.75
2022-10-17T18:32:22.143Z,99261.56
2022-10-17T18:35:23.526Z,99268.66
2022-10-17T18:38:24.970Z,99269.56
2022-10-17T18:41:26.458Z,99263.47
2022-10-17T18:44:27.859Z,99269.59
2022-10-17T18:47:29.777Z,99270.47
2022-10-17T18:50:31.319Z,99266.09
2022-10-17T18:53:32.736Z,99272.22
2022-10-17T18:56:34.077Z,99277.53
2022-10-17T18:59:35.476Z,99269.75
2022-10-17T19:02:38.069Z,99264.47
2022-10-17T19:05:39.848Z,99260.16
2022-10-17T19:08:41.771Z,99261.94
2022-10-17T19:11:43.217Z,99251.47
2022-10-17T19:14:44.556Z,99243.66
2022-10-17T19:17:45.877Z,99242.78
2022-10-17T19:20:47.259Z,99240.13
2022-10-17T19:23:52.365Z,99241.03
2022-10-17T19:26:54.808Z,99241.06
2022-10-17T19:29:56.152Z,99248.03
2022-10-17T19:32:57.496Z,99250.69
2022-10-17T19:35:59.316Z,99248.09
2022-10-17T19:39:01.602Z,99236.72
2022-10-17T19:42:06.734Z,99235.81
2022-10-17T19:45:08.915Z,99241.97
2022-10-17T19:48:10.306Z,99239.34
2022-10-17T19:51:12.392Z,99240.25
2022-10-17T19:54:15.153Z,99237.69
2022-10-17T19:57:16.572Z,99226.28
2022-10-17T20:00:17.941Z,99228.91
2022-10-17T20:03:19.305Z,99231.56
2022-10-17T20:06:20.792Z,99226.34
2022-10-17T20:09:22.236Z,99228.03
2022-10-17T20:12:23.634Z,99224.56
2022-10-17T20:15:25.032Z,99225.47
2022-10-17T20:18:26.395Z,99227.25
2022-10-17T20:21:28.008Z,99225.47
2022-10-17T20:24:29.421Z,99231.63
2022-10-17T20:27:30.751Z,99235.13
2022-10-17T20:30:32.145Z,99236.00
2022-10-17T20:33:33.489Z,99240.41
2022-10-17T20:36:37.423Z,99238.69
2022-10-17T20:39:39.139Z,99239.63
2022-10-17T20:42:40.500Z,99244.88
2022-10-17T20:45:51.172Z,99248.38
2022-10-17T20:48:53.780Z,99244.88
2022-10-17T20:51:55.121Z,99246.63
2022-10-17T20:54:56.498Z,99245.72
2022-10-17T20:57:57.941Z,99251.88
2022-10-17T21:00:59.378Z,99245.72
2022-10-17T21:04:21.484Z,99247.53
2022-10-17T21:07:22.573Z,99255.41
2022-10-17T21:10:34.835Z,99252.81
2022-10-17T21:13:37.130Z,99256.28
2022-10-17T21:16:38.831Z,99254.56
2022-10-17T21:19:40.244Z,99249.31
2022-10-17T21:22:41.590Z,99259.78
2022-10-17T21:25:42.968Z,99258.91
2022-10-17T21:28:44.654Z,99258.03
2022-10-17T21:31:45.996Z,99261.53
2022-10-17T21:34:47.370Z,99257.13
2022-10-17T21:37:48.776Z,99255.38
2022-10-17T21:40:51.478Z,99253.63
2022-10-17T21:43:55.999Z,99255.38
2022-10-17T21:46:57.416Z,99246.63
2022-10-17T21:49:58.784Z,99251.81
2022-10-17T21:53:00.134Z,99245.72
2022-10-17T21:56:01.867Z,99240.47
2022-10-17T21:59:03.286Z,99239.63
2022-10-17T22:02:04.701Z,99242.22
2022-10-17T22:05:06.153Z,99236.09
2022-10-17T22:08:07.533Z,99243.06
2022-10-17T22:11:09.712Z,99236.97
2022-10-17T22:14:13.410Z,99236.94
2022-10-17T22:17:14.739Z,99236.94
2022-10-17T22:20:16.122Z,99228.22
2022-10-17T22:23:17.464Z,99229.09
2022-10-17T22:26:18.826Z,99238.72
2022-10-17T22:29:20.236Z,99228.22
2022-10-17T22:32:22.607Z,99222.09
2022-10-17T22:35:24.102Z,99223.88
2022-10-17T22:38:25.458Z,99216.00
2022-10-17T22:41:26.824Z,99216.00
2022-10-17T22:44:28.238Z,99218.63
2022-10-17T22:47:30.294Z,99206.38
2022-10-17T22:50:31.885Z,99206.34
2022-10-17T22:53:35.024Z,99204.59
2022-10-17T22:56:36.384Z,99199.34
2022-10-17T22:59:37.770Z,99200.19
2022-10-17T23:02:39.175Z,99194.06
2022-10-17T23:05:40.568Z,99184.41
2022-10-17T23:08:41.909Z,99184.44
2022-10-17T23:11:43.236Z,99194.91
2022-10-17T23:14:44.624Z,99182.63
2022-10-17T23:17:46.007Z,99190.53
2022-10-17T23:20:47.402Z,99183.53
2022-10-17T23:23:48.777Z,99183.53
2022-10-17T23:26:50.129Z,99185.25
2022-10-17T23:29:51.513Z,99180.88
2022-10-17T23:32:53.036Z,99177.41
2022-10-17T23:35:54.378Z,99179.13
2022-10-17T23:38:58.439Z,99168.63
2022-10-17T23:42:00.053Z,99162.47
2022-10-17T23:45:01.429Z,99174.69
2022-10-17T23:48:02.844Z,99169.50
2022-10-17T23:51:04.495Z,99173.03
2022-10-17T23:54:05.899Z,99171.25
2022-10-17T23:57:07.642Z,99169.50
